sensor_id;sensor_type;location;lat;lon;timestamp;pressure;altitude;pressure_sealevel;temperature;humidity
50384;BME280;36301;48.310;12.786;2022-11-06T04:00:21;96628.31;;;4.83;100.00
50384;BME280;36301;48.310;12.786;2022-11-06T04:02:54;96629.53;;;4.85;100.00
50384;BME280;36301;48.310;12.786;2022-11-06T04:05:38;96637.69;;;4.92;100.00
50384;BME280;36301;48.310;12.786;2022-11-06T04:08:08;96642.03;;;4.88;100.00
50384;BME280;36301;48.310;12.786;2022-11-06T04:10:59;96637.72;;;4.84;100.00
50384;BME280;36301;48.310;12.786;2022-11-06T04:13:47;96634.00;;;4.85;100.00
50384;BME280;36301;48.310;12.786;2022-11-06T04:16:33;96638.03;;;4.82;100.00
50384;BME280;36301;48.310;12.786;2022-11-06T04:19:00;96637.09;;;4.78;100.00
50384;BME280;36301;48.310;12.786;2022-11-06T04:24:26;96640.34;;;4.84;100.00
50384;BME280;36301;48.310;12.786;2022-11-06T04:27:25;96644.97;;;4.87;100.00
50384;BME280;36301;48.310;12.786;2022-11-06T04:29:59;96654.06;;;4.89;100.00
50384;BME280;36301;48.310;12.786;2022-11-06T04:35:33;96647.59;;;4.87;100.00
50384;BME280;36301;48.310;12.786;2022-11-06T04:38:24;96639.56;;;4.83;100.00
50384;BME280;36301;48.310;12.786;2022-11-06T04:43:42;96647.56;;;4.95;100.00
50384;BME280;36301;48.310;12.786;2022-11-06T04:46:13;96646.94;;;4.99;100.00
50384;BME280;36301;48.310;12.786;2022-11-06T04:48:43;96638.16;;;4.94;100.00
50384;BME280;36301;48.310;12.786;2022-11-06T04:51:11;96634.91;;;4.98;100.00
50384;BME280;36301;48.310;12.786;2022-11-06T04:53:40;96634.44;;;4.95;100.00
50384;BME280;36301;48.310;12.786;2022-11-06T04:56:10;96636.28;;;4.95;100.00
50384;BME280;36301;48.310;12.786;2022-11-06T04:58:37;96635.06;;;4.92;100.00
50384;BME280;36301;48.310;12.786;2022-11-06T05:01:05;96634.75;;;4.94;100.00
50384;BME280;36301;48.310;12.786;2022-11-06T05:03:31;96624.09;;;4.90;100.00
50384;BME280;36301;48.310;12.786;2022-11-06T05:05:58;96634.28;;;5.01;100.00
50384;BME280;36301;48.310;12.786;2022-11-06T05:08:24;96631.97;;;4.99;100.00
50384;BME280;36301;48.310;12.786;2022-11-06T05:10:51;96646.31;;;5.02;100.00
50384;BME280;36301;48.310;12.786;2022-11-06T05:13:17;96637.81;;;5.05;100.00
50384;BME280;36301;48.310;12.786;2022-11-06T05:15:44;96637.97;;;5.08;100.00
50384;BME280;36301;48.310;12.786;2022-11-06T05:18:10;96635.97;;;5.05;100.00
50384;BME280;36301;48.310;12.786;2022-11-06T05:20:38;96621.47;;;4.99;100.00
50384;BME280;36301;48.310;12.786;2022-11-06T05:23:04;96631.19;;;5.07;100.00
50384;BME280;36301;48.310;12.786;2022-11-06T05:25:36;96636.88;;;5.09;100.00
50384;BME280;36301;48.310;12.786;2022-11-06T05:28:04;96632.84;;;5.12;100.00
50384;BME280;36301;48.310;12.786;2022-11-06T05:30:34;96621.41;;;5.16;100.00
50384;BME280;36301;48.310;12.786;2022-11-06T05:33:01;96617.75;;;5.09;100.00
50384;BME280;36301;48.310;12.786;2022-11-06T05:35:27;96612.81;;;5.07;100.00
50384;BME280;36301;48.310;12.786;2022-11-06T05:37:58;96597.53;;;5.01;100.00
50384;BME280;36301;48.310;12.786;2022-11-06T05:40:25;96587.81;;;5.01;100.00
50384;BME280;36301;48.310;12.786;2022-11-06T05:42:51;96602.94;;;5.04;100.00
50384;BME280;36301;48.310;12.786;2022-11-06T05:45:18;96609.88;;;5.09;100.00
50384;BME280;36301;48.310;12.786;2022-11-06T05:47:44;96610.63;;;5.09;100.00
50384;BME280;36301;48.310;12.786;2022-11-06T05:50:11;96607.41;;;5.04;100.00
50384;BME280;36301;48.310;12.786;2022-11-06T05:52:37;96606.78;;;5.07;100.00
50384;BME280;36301;48.310;12.786;2022-11-06T05:55:05;96611.72;;;5.08;100.00
50384;BME280;36301;48.310;12.786;2022-11-06T05:57:39;96602.78;;;5.01;100.00
50384;BME280;36301;48.310;12.786;2022-11-06T06:00:06;96596.16;;;5.03;100.00
50384;BME280;36301;48.310;12.786;2022-11-06T06:02:35;96599.72;;;4.99;100.00
50384;BME280;36301;48.310;12.786;2022-11-06T06:05:02;96607.91;;;4.97;100.00
50384;BME280;36301;48.310;12.786;2022-11-06T06:07:29;96613.00;;;5.02;100.00
50384;BME280;36301;48.310;12.786;2022-11-06T06:09:56;96614.03;;;5.01;100.00
50384;BME280;36301;48.310;12.786;2022-11-06T06:12:22;96600.94;;;5.01;100.00
50384;BME280;36301;48.310;12.786;2022-11-06T06:14:52;96618.97;;;5.11;100.00
50384;BME280;36301;48.310;12.786;2022-11-06T06:17:19;96601.69;;;5.10;100.00
50384;BME280;36301;48.310;12.786;2022-11-06T06:19:47;96619.09;;;5.15;100.00
50384;BME280;36301;48.310;12.786;2022-11-06T06:22:13;96622.66;;;5.19;100.00
50384;BME280;36301;48.310;12.786;2022-11-06T06:24:40;96620.81;;;5.19;100.00
50384;BME280;36301;48.310;12.786;2022-11-06T06:27:07;96616.94;;;5.17;100.00
50384;BME280;36301;48.310;12.786;2022-11-06T06:29:33;96621.41;;;5.16;100.00
50384;BME280;36301;48.310;12.786;2022-11-06T06:32:00;96622.34;;;5.20;100.00
50384;BME280;36301;48.310;12.786;2022-11-06T06:34:26;96618.50;;;5.18;100.00
50384;BME280;36301;48.310;12.786;2022-11-06T06:36:53;96618.34;;;5.14;100.00
50384;BME280;36301;48.310;12.786;2022-11-06T06:39:20;96616.03;;;5.13;100.00
50384;BME280;36301;48.310;12.786;2022-11-06T06:41:47;96622.34;;;5.12;100.00
50384;BME280;36301;48.310;12.786;2022-11-06T06:44:14;96623.28;;;5.16;100.00
50384;BME280;36301;48.310;12.786;2022-11-06T06:46:41;96608.28;;;5.16;100.00
50384;BME280;36301;48.310;12.786;2022-11-06T06:49:08;96622.97;;;5.17;100.00
50384;BME280;36301;48.310;12.786;2022-11-06T06:51:35;96610.91;;;5.16;100.00
50384;BME280;36301;48.310;12.786;2022-11-06T06:54:01;96608.59;;;5.24;100.00
50384;BME280;36301;48.310;12.786;2022-11-06T06:56:28;96612.31;;;5.23;100.00
50384;BME280;36301;48.310;12.786;2022-11-06T06:58:55;96600.72;;;5.24;100.00
50384;BME280;36301;48.310;12.786;2022-11-06T07:01:21;96618.75;;;5.34;100.00
50384;BME280;36301;48.310;12.786;2022-11-06T07:03:48;96619.50;;;5.34;100.00
50384;BME280;36301;48.310;12.786;2022-11-06T07:06:17;96624.16;;;5.37;100.00
50384;BME280;36301;48.310;12.786;2022-11-06T07:08:43;96619.34;;;5.39;100.00
50384;BME280;36301;48.310;12.786;2022-11-06T07:11:12;96604.50;;;5.43;100.00
50384;BME280;36301;48.310;12.786;2022-11-06T07:13:38;96600.59;;;5.50;100.00
50384;BME280;36301;48.310;12.786;2022-11-06T07:16:07;96602.16;;;5.42;100.00
50384;BME280;36301;48.310;12.786;2022-11-06T07:18:35;96590.13;;;5.41;100.00
50384;BME280;36301;48.310;12.786;2022-11-06T07:21:06;96589.94;;;5.46;100.00
50384;BME280;36301;48.310;12.786;2022-11-06T07:23:34;96576.25;;;5.40;100.00
50384;BME280;36301;48.310;12.786;2022-11-06T07:26:01;96575.78;;;5.38;100.00
50384;BME280;36301;48.310;12.786;2022-11-06T07:28:28;96568.69;;;5.39;100.00
50384;BME280;36301;48.310;12.786;2022-11-06T07:31:02;96584.84;;;5.50;100.00
50384;BME280;36301;48.310;12.786;2022-11-06T07:33:29;96580.25;;;5.67;100.00
50384;BME280;36301;48.310;12.786;2022-11-06T07:36:01;96560.53;;;5.61;100.00
50384;BME280;36301;48.310;12.786;2022-11-06T07:38:27;96568.69;;;5.68;100.00
50384;BME280;36301;48.310;12.786;2022-11-06T07:40:54;96574.50;;;6.04;100.00
50384;BME280;36301;48.310;12.786;2022-11-06T07:43:20;96584.59;;;7.01;100.00
50384;BME280;36301;48.310;12.786;2022-11-06T07:45:47;96571.72;;;8.10;100.00
50384;BME280;36301;48.310;12.786;2022-11-06T07:48:13;96566.97;;;8.71;100.00
50384;BME280;36301;48.310;12.786;2022-11-06T07:50:40;96573.00;;;9.82;98.01
50384;BME280;36301;48.310;12.786;2022-11-06T07:53:07;96573.50;;;10.04;94.33
50384;BME280;36301;48.310;12.786;2022-11-06T07:55:33;96577.16;;;8.85;98.74
50384;BME280;36301;48.310;12.786;2022-11-06T07:58:07;96576.50;;;8.60;100.00
50384;BME280;36301;48.310;12.786;2022-11-06T08:00:33;96582.88;;;7.78;100.00
50384;BME280;36301;48.310;12.786;2022-11-06T08:03:00;96581.31;;;7.65;100.00
50384;BME280;36301;48.310;12.786;2022-11-06T08:05:26;96568.78;;;8.67;100.00
50384;BME280;36301;48.310;12.786;2022-11-06T08:07:56;96563.44;;;9.27;100.00
50384;BME280;36301;48.310;12.786;2022-11-06T08:10:23;96551.91;;;8.16;100.00
50384;BME280;36301;48.310;12.786;2022-11-06T08:12:49;96563.53;;;7.74;100.00
50384;BME280;36301;48.310;12.786;2022-11-06T08:15:16;96561.69;;;7.38;100.00
50384;BME280;36301;48.310;12.786;2022-11-06T08:17:42;96545.47;;;7.12;100.00
50384;BME280;36301;48.310;12.786;2022-11-06T08:20:09;96548.81;;;6.88;100.00
50384;BME280;36301;48.310;12.786;2022-11-06T08:22:35;96551.31;;;6.84;100.00
50384;BME280;36301;48.310;12.786;2022-11-06T08:25:02;96550.00;;;6.78;100.00
50384;BME280;36301;48.310;12.786;2022-11-06T08:27:28;96550.13;;;6.94;100.00
50384;BME280;36301;48.310;12.786;2022-11-06T08:29:55;96557.69;;;6.83;100.00
50384;BME280;36301;48.310;12.786;2022-11-06T08:32:22;96560.38;;;6.62;100.00
50384;BME280;36301;48.310;12.786;2022-11-06T08:34:48;96550.47;;;6.47;100.00
50384;BME280;36301;48.310;12.786;2022-11-06T08:37:15;96560.34;;;6.50;100.00
50384;BME280;36301;48.310;12.786;2022-11-06T08:39:41;96552.69;;;6.57;100.00
50384;BME280;36301;48.310;12.786;2022-11-06T08:42:09;96551.69;;;6.49;100.00
50384;BME280;36301;48.310;12.786;2022-11-06T08:44:36;96553.22;;;6.50;100.00
50384;BME280;36301;48.310;12.786;2022-11-06T08:47:02;96549.50;;;6.52;100.00
50384;BME280;36301;48.310;12.786;2022-11-06T08:49:29;96537.78;;;6.49;100.00
50384;BME280;36301;48.310;12.786;2022-11-06T08:51:55;96535.78;;;6.46;100.00
50384;BME280;36301;48.310;12.786;2022-11-06T08:54:22;96520.34;;;6.44;100.00
50384;BME280;36301;48.310;12.786;2022-11-06T08:56:48;96516.63;;;6.45;100.00
50384;BME280;36301;48.310;12.786;2022-11-06T08:59:15;96520.78;;;6.46;100.00
50384;BME280;36301;48.310;12.786;2022-11-06T09:01:41;96520.66;;;6.43;100.00
50384;BME280;36301;48.310;12.786;2022-11-06T09:04:08;96526.84;;;6.59;100.00
50384;BME280;36301;48.310;12.786;2022-11-06T09:06:34;96526.38;;;6.57;100.00
50384;BME280;36301;48.310;12.786;2022-11-06T09:09:01;96514.66;;;6.55;100.00
50384;BME280;36301;48.310;12.786;2022-11-06T09:11:27;96517.38;;;6.46;100.00
50384;BME280;36301;48.310;12.786;2022-11-06T09:13:54;96516.75;;;6.28;100.00
50384;BME280;36301;48.310;12.786;2022-11-06T09:16:20;96515.31;;;6.52;100.00
50384;BME280;36301;48.310;12.786;2022-11-06T09:18:47;96515.94;;;6.48;100.00
50384;BME280;36301;48.310;12.786;2022-11-06T09:21:13;96509.81;;;6.44;100.00
50384;BME280;36301;48.310;12.786;2022-11-06T09:23:40;96510.06;;;6.52;100.00
50384;BME280;36301;48.310;12.786;2022-11-06T09:26:06;96508.44;;;6.59;100.00
50384;BME280;36301;48.310;12.786;2022-11-06T09:28:33;96512.59;;;6.60;100.00
50384;BME280;36301;48.310;12.786;2022-11-06T09:31:00;96505.81;;;6.59;100.00
50384;BME280;36301;48.310;12.786;2022-11-06T09:33:27;96504.38;;;6.62;100.00
50384;BME280;36301;48.310;12.786;2022-11-06T09:35:54;96497.16;;;6.71;100.00
50384;BME280;36301;48.310;12.786;2022-11-06T09:38:20;96486.97;;;6.82;100.00
50384;BME280;36301;48.310;12.786;2022-11-06T09:40:58;96490.81;;;7.09;100.00
50384;BME280;36301;48.310;12.786;2022-11-06T09:46:33;96456.88;;;7.84;100.00
50384;BME280;36301;48.310;12.786;2022-11-06T09:49:07;96456.97;;;7.88;100.00
50384;BME280;36301;48.310;12.786;2022-11-06T09:51:40;96461.72;;;7.82;100.00
50384;BME280;36301;48.310;12.786;2022-11-06T09:54:23;96438.09;;;7.58;100.00
50384;BME280;36301;48.310;12.786;2022-11-06T09:56:59;96450.56;;;7.73;100.00
50384;BME280;36301;48.310;12.786;2022-11-06T09:59:27;96440.97;;;7.80;100.00
50384;BME280;36301;48.310;12.786;2022-11-06T10:01:57;96454.00;;;8.17;100.00
50384;BME280;36301;48.310;12.786;2022-11-06T10:04:53;96473.03;;;8.39;100.00
50384;BME280;36301;48.310;12.786;2022-11-06T10:07:31;96463.94;;;8.08;100.00
50384;BME280;36301;48.310;12.786;2022-11-06T10:10:00;96458.19;;;7.50;100.00
50384;BME280;36301;48.310;12.786;2022-11-06T10:15:25;96469.41;;;7.87;100.00
50384;BME280;36301;48.310;12.786;2022-11-06T10:20:44;96477.28;;;8.15;100.00
50384;BME280;36301;48.310;12.786;2022-11-06T10:34:00;96439.38;;;8.36;100.00
50384;BME280;36301;48.310;12.786;2022-11-06T10:36:36;96427.78;;;8.09;100.00
50384;BME280;36301;48.310;12.786;2022-11-06T10:39:14;96399.03;;;8.19;100.00
50384;BME280;36301;48.310;12.786;2022-11-06T10:41:42;96395.06;;;8.41;100.00
50384;BME280;36301;48.310;12.786;2022-11-06T10:44:23;96411.44;;;8.78;100.00
50384;BME280;36301;48.310;12.786;2022-11-06T10:47:00;96400.31;;;9.04;100.00
50384;BME280;36301;48.310;12.786;2022-11-06T10:52:19;96382.19;;;9.03;100.00
50384;BME280;36301;48.310;12.786;2022-11-06T10:57:57;96365.44;;;8.79;100.00
50384;BME280;36301;48.310;12.786;2022-11-06T11:00:25;96354.47;;;8.46;100.00
50384;BME280;36301;48.310;12.786;2022-11-06T11:02:55;96348.03;;;8.43;100.00
50384;BME280;36301;48.310;12.786;2022-11-06T11:05:23;96346.75;;;8.53;100.00
50384;BME280;36301;48.310;12.786;2022-11-06T11:07:51;96343.44;;;8.91;100.00
50384;BME280;36301;48.310;12.786;2022-11-06T11:10:57;96340.06;;;9.10;100.00
50384;BME280;36301;48.310;12.786;2022-11-06T11:13:30;96323.66;;;9.01;100.00
50384;BME280;36301;48.310;12.786;2022-11-06T11:15:57;96313.09;;;9.01;100.00
50384;BME280;36301;48.310;12.786;2022-11-06T11:18:26;96311.28;;;9.05;100.00
50384;BME280;36301;48.310;12.786;2022-11-06T11:23:37;96284.19;;;8.89;100.00
50384;BME280;36301;48.310;12.786;2022-11-06T11:26:19;96289.59;;;8.61;100.00
50384;BME280;36301;48.310;12.786;2022-11-06T11:28:50;96294.31;;;8.20;100.00
50384;BME280;36301;48.310;12.786;2022-11-06T11:31:18;96292.28;;;8.45;100.00
50384;BME280;36301;48.310;12.786;2022-11-06T11:33:53;96291.75;;;8.55;100.00
50384;BME280;36301;48.310;12.786;2022-11-06T11:36:20;96281.22;;;8.39;100.00
50384;BME280;36301;48.310;12.786;2022-11-06T11:38:47;96273.97;;;8.20;100.00
50384;BME280;36301;48.310;12.786;2022-11-06T11:44:16;96254.44;;;8.21;100.00
50384;BME280;36301;48.310;12.786;2022-11-06T11:49:32;96253.97;;;8.35;100.00
50384;BME280;36301;48.310;12.786;2022-11-06T11:52:03;96242.75;;;8.22;100.00
50384;BME280;36301;48.310;12.786;2022-11-06T11:54:32;96229.94;;;8.37;100.00
50384;BME280;36301;48.310;12.786;2022-11-06T11:57:07;96234.72;;;8.50;100.00
50384;BME280;36301;48.310;12.786;2022-11-06T11:59:53;96234.94;;;8.42;100.00
50384;BME280;36301;48.310;12.786;2022-11-06T12:02:28;96229.66;;;8.42;100.00
50384;BME280;36301;48.310;12.786;2022-11-06T12:05:27;96219.50;;;8.44;100.00
50384;BME280;36301;48.310;12.786;2022-11-06T12:07:59;96218.31;;;8.41;100.00
50384;BME280;36301;48.310;12.786;2022-11-06T12:10:42;96211.88;;;8.23;100.00
50384;BME280;36301;48.310;12.786;2022-11-06T12:13:16;96223.88;;;8.20;100.00
50384;BME280;36301;48.310;12.786;2022-11-06T12:15:50;96204.00;;;8.07;100.00
50384;BME280;36301;48.310;12.786;2022-11-06T12:18:24;96202.38;;;8.02;100.00
50384;BME280;36301;48.310;12.786;2022-11-06T12:24:21;96182.94;;;7.91;100.00
50384;BME280;36301;48.310;12.786;2022-11-06T12:27:19;96198.03;;;7.94;100.00
50384;BME280;36301;48.310;12.786;2022-11-06T12:29:51;96184.78;;;8.06;100.00
50384;BME280;36301;48.310;12.786;2022-11-06T12:32:30;96178.53;;;8.15;100.00
50384;BME280;36301;48.310;12.786;2022-11-06T12:40:42;96162.06;;;8.02;100.00
50384;BME280;36301;48.310;12.786;2022-11-06T12:43:33;96150.06;;;8.04;100.00
50384;BME280;36301;48.310;12.786;2022-11-06T12:51:20;96140.00;;;7.91;100.00
50384;BME280;36301;48.310;12.786;2022-11-06T13:01:45;96126.91;;;7.78;100.00
50384;BME280;36301;48.310;12.786;2022-11-06T13:04:47;96111.78;;;7.75;100.00
50384;BME280;36301;48.310;12.786;2022-11-06T13:07:33;96108.63;;;7.86;100.00
50384;BME280;36301;48.310;12.786;2022-11-06T13:12:50;96102.06;;;7.79;100.00
50384;BME280;36301;48.310;12.786;2022-11-06T13:18:13;96102.00;;;7.76;100.00
50384;BME280;36301;48.310;12.786;2022-11-06T13:20:51;96104.81;;;7.67;100.00
50384;BME280;36301;48.310;12.786;2022-11-06T13:23:28;96102.38;;;7.59;100.00
50384;BME280;36301;48.310;12.786;2022-11-06T13:26:07;96099.22;;;7.53;100.00
50384;BME280;36301;48.310;12.786;2022-11-06T13:28:47;96091.81;;;7.59;100.00
50384;BME280;36301;48.310;12.786;2022-11-06T13:31:17;96099.06;;;7.62;100.00
50384;BME280;36301;48.310;12.786;2022-11-06T13:33:54;96107.75;;;7.46;100.00
50384;BME280;36301;48.310;12.786;2022-11-06T13:36:25;96107.53;;;7.55;100.00
50384;BME280;36301;48.310;12.786;2022-11-06T13:41:29;96120.56;;;7.48;100.00
50384;BME280;36301;48.310;12.786;2022-11-06T13:44:01;96119.41;;;7.45;100.00
50384;BME280;36301;48.310;12.786;2022-11-06T13:46:35;96132.22;;;7.47;100.00
50384;BME280;36301;48.310;12.786;2022-11-06T13:51:57;96132.47;;;7.42;100.00
50384;BME280;36301;48.310;12.786;2022-11-06T14:00:05;96121.06;;;7.38;100.00
50384;BME280;36301;48.310;12.786;2022-11-06T14:10:55;96091.41;;;7.09;100.00
50384;BME280;36301;48.310;12.786;2022-11-06T14:13:24;96091.50;;;7.13;100.00
50384;BME280;36301;48.310;12.786;2022-11-06T14:18:53;96067.66;;;6.90;100.00
50384;BME280;36301;48.310;12.786;2022-11-06T14:24:15;96079.25;;;6.89;100.00
50384;BME280;36301;48.310;12.786;2022-11-06T14:26:45;96085.03;;;6.79;100.00
50384;BME280;36301;48.310;12.786;2022-11-06T14:34:32;96077.06;;;6.75;100.00
50384;BME280;36301;48.310;12.786;2022-11-06T14:42:35;96066.94;;;6.61;100.00
50384;BME280;36301;48.310;12.786;2022-11-06T14:47:41;96066.16;;;6.61;100.00
50384;BME280;36301;48.310;12.786;2022-11-06T14:52:58;96060.16;;;6.60;100.00
50384;BME280;36301;48.310;12.786;2022-11-06T14:55:29;96046.47;;;6.55;100.00
50384;BME280;36301;48.310;12.786;2022-11-06T14:58:20;96048.00;;;6.56;100.00
50384;BME280;36301;48.310;12.786;2022-11-06T15:16:36;96007.78;;;6.11;100.00
50384;BME280;36301;48.310;12.786;2022-11-06T15:22:19;96003.09;;;6.05;100.00
50384;BME280;36301;48.310;12.786;2022-11-06T15:28:06;96002.88;;;5.97;100.00
50384;BME280;36301;48.310;12.786;2022-11-06T15:30:59;96010.13;;;5.88;100.00
50384;BME280;36301;48.310;12.786;2022-11-06T15:33:32;96014.06;;;5.82;100.00
50384;BME280;36301;48.310;12.786;2022-11-06T15:36:04;95999.53;;;5.72;100.00
50384;BME280;36301;48.310;12.786;2022-11-06T15:38:42;96002.16;;;5.72;100.00
50384;BME280;36301;48.310;12.786;2022-11-06T15:41:18;96007.56;;;5.64;100.00
50384;BME280;36301;48.310;12.786;2022-11-06T15:43:48;96009.50;;;5.67;100.00
50384;BME280;36301;48.310;12.786;2022-11-06T15:48:44;96001.66;;;5.55;100.00
50384;BME280;36301;48.310;12.786;2022-11-06T15:51:23;96002.66;;;5.50;100.00
50384;BME280;36301;48.310;12.786;2022-11-06T15:53:50;96009.34;;;5.47;100.00
50384;BME280;36301;48.310;12.786;2022-11-06T15:56:21;96008.91;;;5.45;100.00
50384;BME280;36301;48.310;12.786;2022-11-06T15:59:04;96004.88;;;5.36;100.00
50384;BME280;36301;48.310;12.786;2022-11-06T16:01:32;96008.81;;;5.30;100.00
50384;BME280;36301;48.310;12.786;2022-11-06T16:04:02;96014.41;;;5.28;100.00
50384;BME280;36301;48.310;12.786;2022-11-06T16:06:30;96002.91;;;5.20;100.00
50384;BME280;36301;48.310;12.786;2022-11-06T16:08:58;96002.72;;;5.13;100.00
50384;BME280;36301;48.310;12.786;2022-11-06T16:11:25;96001.63;;;5.02;100.00
50384;BME280;36301;48.310;12.786;2022-11-06T16:13:53;96007.94;;;5.01;100.00
50384;BME280;36301;48.310;12.786;2022-11-06T16:18:58;95997.44;;;5.01;100.00
50384;BME280;36301;48.310;12.786;2022-11-06T16:21:29;96000.53;;;5.03;100.00
50384;BME280;36301;48.310;12.786;2022-11-06T16:24:16;96002.28;;;4.99;100.00
50384;BME280;36301;48.310;12.786;2022-11-06T16:26:48;96001.50;;;4.99;100.00
50384;BME280;36301;48.310;12.786;2022-11-06T16:29:19;95994.28;;;4.95;100.00
50384;BME280;36301;48.310;12.786;2022-11-06T16:31:47;95993.63;;;4.86;100.00
50384;BME280;36301;48.310;12.786;2022-11-06T16:34:42;95998.09;;;4.86;100.00
50384;BME280;36301;48.310;12.786;2022-11-06T16:42:20;95996.91;;;4.83;100.00
50384;BME280;36301;48.310;12.786;2022-11-06T16:47:27;96007.94;;;4.77;100.00
50384;BME280;36301;48.310;12.786;2022-11-06T16:49:55;96009.56;;;4.69;100.00
50384;BME280;36301;48.310;12.786;2022-11-06T16:52:26;96018.19;;;4.57;100.00
50384;BME280;36301;48.310;12.786;2022-11-06T16:57:43;96021.47;;;4.66;100.00
50384;BME280;36301;48.310;12.786;2022-11-06T17:00:21;96010.66;;;4.68;100.00
50384;BME280;36301;48.310;12.786;2022-11-06T17:05:33;96011.84;;;4.58;100.00
50384;BME280;36301;48.310;12.786;2022-11-06T17:10:54;96005.06;;;4.57;100.00
50384;BME280;36301;48.310;12.786;2022-11-06T17:13:29;96015.34;;;4.62;100.00
50384;BME280;36301;48.310;12.786;2022-11-06T17:18:30;96018.41;;;4.64;100.00
50384;BME280;36301;48.310;12.786;2022-11-06T17:21:11;96022.75;;;4.60;100.00
50384;BME280;36301;48.310;12.786;2022-11-06T17:23:38;96021.09;;;4.56;100.00
50384;BME280;36301;48.310;12.786;2022-11-06T17:26:06;96014.69;;;4.65;100.00
50384;BME280;36301;48.310;12.786;2022-11-06T17:28:35;96017.97;;;4.62;100.00
50384;BME280;36301;48.310;12.786;2022-11-06T17:31:02;96017.22;;;4.62;100.00
50384;BME280;36301;48.310;12.786;2022-11-06T17:33:28;96015.09;;;4.55;100.00
50384;BME280;36301;48.310;12.786;2022-11-06T17:35:55;96011.94;;;4.50;100.00
50384;BME280;36301;48.310;12.786;2022-11-06T17:38:21;96022.53;;;4.53;100.00
50384;BME280;36301;48.310;12.786;2022-11-06T17:40:48;96022.09;;;4.51;100.00
50384;BME280;36301;48.310;12.786;2022-11-06T17:43:14;96003.84;;;4.42;100.00
50384;BME280;36301;48.310;12.786;2022-11-06T17:45:42;96004.41;;;4.48;100.00
50384;BME280;36301;48.310;12.786;2022-11-06T17:48:10;95982.06;;;4.30;100.00
50384;BME280;36301;48.310;12.786;2022-11-06T17:50:36;96019.69;;;4.46;100.00
50384;BME280;36301;48.310;12.786;2022-11-06T17:53:21;96014.06;;;4.35;100.00
50384;BME280;36301;48.310;12.786;2022-11-06T17:55:48;96017.59;;;4.39;100.00
50384;BME280;36301;48.310;12.786;2022-11-06T17:58:14;96018.88;;;4.33;100.00
50384;BME280;36301;48.310;12.786;2022-11-06T18:00:42;96008.81;;;4.23;100.00
50384;BME280;36301;48.310;12.786;2022-11-06T18:03:18;96015.22;;;4.13;100.00
50384;BME280;36301;48.310;12.786;2022-11-06T18:05:46;95967.97;;;3.89;100.00
50384;BME280;36301;48.310;12.786;2022-11-06T18:08:12;96021.53;;;4.12;100.00
50384;BME280;36301;48.310;12.786;2022-11-06T18:10:40;96024.59;;;4.14;100.00
50384;BME280;36301;48.310;12.786;2022-11-06T18:13:06;96024.28;;;4.16;100.00
50384;BME280;36301;48.310;12.786;2022-11-06T18:15:34;96016.88;;;4.18;100.00
50384;BME280;36301;48.310;12.786;2022-11-06T18:18:01;96025.06;;;4.16;100.00
50384;BME280;36301;48.310;12.786;2022-11-06T18:20:28;96025.91;;;4.21;100.00
50384;BME280;36301;48.310;12.786;2022-11-06T18:22:54;96009.56;;;4.24;100.00
50384;BME280;36301;48.310;12.786;2022-11-06T18:25:21;96017.00;;;4.22;100.00
50384;BME280;36301;48.310;12.786;2022-11-06T18:27:47;96034.88;;;4.20;100.00
50384;BME280;36301;48.310;12.786;2022-11-06T18:30:14;96033.13;;;4.11;100.00
50384;BME280;36301;48.310;12.786;2022-11-06T18:32:40;96022.38;;;4.04;100.00
50384;BME280;36301;48.310;12.786;2022-11-06T18:35:07;96027.91;;;4.24;100.00
50384;BME280;36301;48.310;12.786;2022-11-06T18:37:34;96022.88;;;4.19;100.00
50384;BME280;36301;48.310;12.786;2022-11-06T18:40:00;96023.19;;;4.17;100.00
50384;BME280;36301;48.310;12.786;2022-11-06T18:42:27;96033.22;;;4.15;100.00
50384;BME280;36301;48.310;12.786;2022-11-06T18:44:53;96029.59;;;4.07;100.00
50384;BME280;36301;48.310;12.786;2022-11-06T18:47:20;96036.00;;;3.98;100.00
50384;BME280;36301;48.310;12.786;2022-11-06T18:49:46;96042.75;;;3.99;100.00
50384;BME280;36301;48.310;12.786;2022-11-06T18:52:13;96036.50;;;3.91;100.00
50384;BME280;36301;48.310;12.786;2022-11-06T18:54:59;96035.16;;;3.85;100.00
50384;BME280;36301;48.310;12.786;2022-11-06T18:57:27;96037.00;;;3.84;100.00
50384;BME280;36301;48.310;12.786;2022-11-06T18:59:54;96036.56;;;3.82;100.00
50384;BME280;36301;48.310;12.786;2022-11-06T19:02:20;96013.00;;;3.61;100.00
50384;BME280;36301;48.310;12.786;2022-11-06T19:04:47;96042.63;;;3.74;100.00
50384;BME280;36301;48.310;12.786;2022-11-06T19:07:14;96042.00;;;3.77;100.00
50384;BME280;36301;48.310;12.786;2022-11-06T19:09:41;96042.06;;;3.89;100.00
50384;BME280;36301;48.310;12.786;2022-11-06T19:12:07;96032.16;;;3.95;100.00
50384;BME280;36301;48.310;12.786;2022-11-06T19:14:34;96035.78;;;4.03;100.00
50384;BME280;36301;48.310;12.786;2022-11-06T19:17:00;96038.09;;;4.04;100.00
50384;BME280;36301;48.310;12.786;2022-11-06T19:19:26;96049.91;;;4.10;100.00
50384;BME280;36301;48.310;12.786;2022-11-06T19:21:53;96044.22;;;4.08;100.00
50384;BME280;36301;48.310;12.786;2022-11-06T19:24:19;96052.03;;;4.17;100.00
50384;BME280;36301;48.310;12.786;2022-11-06T19:26:46;96059.13;;;4.16;100.00
50384;BME280;36301;48.310;12.786;2022-11-06T19:29:13;96064.47;;;4.20;100.00
50384;BME280;36301;48.310;12.786;2022-11-06T19:31:39;96051.75;;;4.10;100.00
50384;BME280;36301;48.310;12.786;2022-11-06T19:34:07;96062.03;;;4.15;100.00
50384;BME280;36301;48.310;12.786;2022-11-06T19:36:34;96066.50;;;4.14;100.00
50384;BME280;36301;48.310;12.786;2022-11-06T19:39:00;96064.84;;;4.10;100.00
50384;BME280;36301;48.310;12.786;2022-11-06T19:41:27;96056.88;;;4.06;100.00
50384;BME280;36301;48.310;12.786;2022-11-06T19:43:54;96060.50;;;4.14;100.00